^^
Grace C. Lehan Memorial Weather Station Historical Data
Daily Summary for April 18, 2021 Units:  English    Metric   Both
Daily Weekly Monthly Yearly
  High: Low: Average:
Temperature: 83.9 °F 69.3 °F 75.6 °F
Dew Point: 76.5 °F 68.2 °F 71.8 °F
Humidity: 97% 75.3% 88%
Wind Speed: 8mph 0mph 0.2mph
Wind Gust: 14mph - -
Wind- - SSW
Pressure: 29.97 in 29.86 in -
Precipitation: 1.71 in    
 
 
Tabular Data for April 18, 2021
Time Temperature Dew Point Pressure Wind Wind Speed Wind Gust Humidity Rainfall Rate (Hourly) solar
00:04 73.3 °F 71.8 °F 29.97 in Calm     95% 0.01 in 0 W/m2
00:09 73.3 °F 71.8 °F 29.97 in Calm   2 mph 95% 0.01 in 0 W/m2
00:14 73.3 °F 71.8 °F 29.97 in Calm   2 mph 95% 0.01 in 0 W/m2
00:19 73.4 °F 71.9 °F 29.96 in Calm   2 mph 95% 0.01 in 0 W/m2
00:24 73.4 °F 71.9 °F 29.96 in Calm   2 mph 95% 0.01 in 0 W/m2
00:29 73.4 °F 71.9 °F 29.96 in Calm   2 mph 95% 0.01 in 0 W/m2
00:34 73.4 °F 71.9 °F 29.95 in Calm   2 mph 95% 0.01 in 0 W/m2
00:39 73.4 °F 71.9 °F 29.95 in Calm   1 mph 95% 0.00 in 0 W/m2
00:44 73.4 °F 71.9 °F 29.95 in Calm   1 mph 95% 0.00 in 0 W/m2
00:49 73.4 °F 71.9 °F 29.94 in ENE 0.2 mph 3 mph 95% 0.00 in 0 W/m2
00:54 73.4 °F 71.9 °F 29.94 in ENE 0.1 mph 3 mph 95% 0.00 in 0 W/m2
00:59 73.4 °F 71.9 °F 29.94 in Calm   3 mph 95% 0.02 in 0 W/m2
01:04 73.5 °F 72 °F 29.93 in ENE 0.1 mph 4 mph 95% 0.02 in 0 W/m2
01:09 73.5 °F 72 °F 29.94 in Calm   4 mph 95% 0.03 in 0 W/m2
01:14 73.6 °F 72.1 °F 29.94 in ENE 0.1 mph 4 mph 95.3% 0.04 in 0 W/m2
01:19 73.6 °F 72.4 °F 29.94 in NW 1.3 mph 9 mph 96% 0.07 in 0 W/m2
01:24 73.4 °F 72 °F 29.94 in NW 0.7 mph 9 mph 95.2% 0.12 in 0 W/m2
01:29 73 °F 71.5 °F 29.95 in WNW 4 mph 13 mph 95% 0.19 in 0 W/m2
01:34 72.4 °F 70.8 °F 29.95 in NW 8 mph 14 mph 95% 0.42 in 5 W/m2
01:44 71.5 °F 70 °F 29.93 in SSW 2 mph 6 mph 95% 1.14 in 0 W/m2
01:49 71.4 °F 69.9 °F 29.91 in NE 1.8 mph 7 mph 95% 1.17 in 0 W/m2
01:54 71.3 °F 69.8 °F 29.92 in NNW 0.8 mph 7 mph 95% 1.18 in 0 W/m2
01:59 71.3 °F 69.8 °F 29.92 in North 0.3 mph 7 mph 95% 1.18 in 0 W/m2
02:04 71.3 °F 70.1 °F 29.92 in NNW 0.9 mph 7 mph 95.9% 1.18 in 0 W/m2
02:09 71.2 °F 70 °F 29.92 in Calm   6 mph 96% 1.16 in 0 W/m2
02:14 71.1 °F 69.9 °F 29.92 in NNW 0.1 mph 6 mph 96% 1.16 in 0 W/m2
02:19 71 °F 69.8 °F 29.92 in Calm   6 mph 96% 1.16 in 0 W/m2
02:24 70.9 °F 69.7 °F 29.92 in NNW 1.1 mph 6 mph 96% 1.16 in 0 W/m2
02:29 70.7 °F 69.5 °F 29.91 in North 0.3 mph 6 mph 96% 1.16 in 0 W/m2
02:34 70.6 °F 69.4 °F 29.91 in Calm   6 mph 96% 1.16 in 0 W/m2
02:39 70.6 °F 69.4 °F 29.91 in NNW 0.4 mph 4 mph 96% 0.99 in 0 W/m2
02:44 70.5 °F 69.3 °F 29.91 in NNW 0.5 mph 4 mph 96% 0.99 in 0 W/m2
02:49 70.3 °F 69.1 °F 29.93 in NW 1.3 mph 5 mph 96% 1.05 in 0 W/m2
02:54 70.3 °F 69.1 °F 29.94 in WNW 1.7 mph 10 mph 96% 1.33 in 0 W/m2
02:59 70.2 °F 69.1 °F 29.92 in NW 0.2 mph 10 mph 96% 1.48 in 0 W/m2
03:04 70.1 °F 68.9 °F 29.93 in North 0.2 mph 10 mph 96% 1.48 in 0 W/m2
03:09 70.1 °F 68.9 °F 29.93 in Calm   3 mph 96% 0.51 in 0 W/m2
03:14 70.1 °F 68.9 °F 29.93 in Calm   3 mph 96% 0.52 in 0 W/m2
03:19 70.1 °F 68.9 °F 29.93 in Calm   3 mph 96% 0.52 in 0 W/m2
03:24 70.2 °F 69 °F 29.93 in North 0.1 mph 3 mph 96% 0.52 in 0 W/m2
03:29 70.2 °F 69 °F 29.92 in Calm   3 mph 96% 0.52 in 0 W/m2
03:34 70.1 °F 68.9 °F 29.92 in Calm   3 mph 96% 0.53 in 0 W/m2
03:39 70.1 °F 68.9 °F 29.93 in North 0.1 mph 1 mph 96% 0.53 in 0 W/m2
03:44 70.1 °F 68.9 °F 29.92 in Calm   1 mph 96% 0.53 in 0 W/m2
03:49 70.1 °F 68.9 °F 29.92 in Calm   1 mph 96% 0.53 in 0 W/m2
03:54 70.1 °F 68.9 °F 29.92 in Calm   1 mph 96% 0.53 in 0 W/m2
03:58 70.1 °F 68.9 °F 29.92 in Calm   1 mph 96% 0.53 in 0 W/m2
04:04 70 °F 68.8 °F 29.91 in Calm     96% 0.53 in 0 W/m2
04:09 70 °F 68.8 °F 29.92 in Calm   1 mph 96% 0.53 in 0 W/m2
04:14 69.9 °F 68.8 °F 29.92 in Calm   2 mph 96% 0.53 in 0 W/m2
04:19 69.9 °F 68.7 °F 29.92 in North 0.3 mph 3 mph 96% 0.53 in 0 W/m2
04:24 69.9 °F 68.7 °F 29.92 in Calm   3 mph 96% 0.53 in 0 W/m2
04:25 69.8 °F 68.6 °F 29.92 in Calm   3 mph 96% 0.53 in 0 W/m2
04:34 69.7 °F 68.5 °F 29.92 in Calm   1 mph 96% 0.54 in 0 W/m2
04:39 69.6 °F 68.5 °F 29.92 in Calm   1 mph 96.2% 0.04 in 0 W/m2
04:44 69.5 °F 68.3 °F 29.92 in North 0.1 mph 2 mph 96% 0.04 in 0 W/m2
04:49 69.5 °F 68.3 °F 29.92 in Calm   2 mph 96% 0.04 in 0 W/m2
04:54 69.5 °F 68.3 °F 29.92 in Calm   2 mph 96% 0.04 in 0 W/m2
04:59 69.4 °F 68.3 °F 29.93 in Calm   2 mph 96% 0.04 in 0 W/m2
05:04 69.4 °F 68.2 °F 29.93 in Calm   2 mph 96% 0.04 in 0 W/m2
05:09 69.4 °F 68.2 °F 29.93 in Calm     96% 0.00 in 0 W/m2
05:14 69.4 °F 68.2 °F 29.93 in Calm     96% 0.00 in 0 W/m2
05:19 69.4 °F 68.5 °F 29.93 in Calm     96.8% 0.00 in 0 W/m2
05:24 69.4 °F 68.5 °F 29.93 in Calm     97% 0.00 in 0 W/m2
05:29 69.4 °F 68.5 °F 29.93 in Calm     97% 0.00 in 0 W/m2
05:34 69.4 °F 68.5 °F 29.93 in Calm     97% 0.00 in 0 W/m2
05:39 69.4 °F 68.5 °F 29.93 in Calm     97% 0.00 in 0 W/m2
05:44 69.4 °F 68.5 °F 29.94 in Calm     97% 0.00 in 0 W/m2
05:49 69.4 °F 68.5 °F 29.94 in Calm     97% 0.00 in 5 W/m2
05:54 69.4 °F 68.5 °F 29.94 in Calm     97% 0.00 in 9 W/m2
05:59 69.4 °F 68.5 °F 29.94 in Calm     97% 0.00 in 9 W/m2
06:04 69.4 °F 68.5 °F 29.94 in Calm     97% 0.00 in 11 W/m2
06:09 69.4 °F 68.5 °F 29.94 in Calm     97% 0.00 in 11 W/m2
06:14 69.4 °F 68.5 °F 29.94 in Calm     97% 0.00 in 12 W/m2
06:19 69.4 °F 68.5 °F 29.94 in Calm     97% 0.00 in 16 W/m2
06:24 69.4 °F 68.5 °F 29.95 in Calm     97% 0.00 in 16 W/m2
06:29 69.3 °F 68.4 °F 29.95 in Calm     97% 0.00 in 18 W/m2
06:34 69.3 °F 68.4 °F 29.95 in Calm     97% 0.00 in 21 W/m2
06:39 69.3 °F 68.4 °F 29.95 in Calm     97% 0.00 in 23 W/m2
06:44 69.3 °F 68.5 °F 29.95 in Calm     97% 0.00 in 28 W/m2
06:49 69.4 °F 68.6 °F 29.95 in Calm     97% 0.00 in 30 W/m2
06:54 69.5 °F 68.6 °F 29.95 in Calm     97% 0.00 in 30 W/m2
06:59 69.6 °F 68.7 °F 29.95 in Calm     97% 0.00 in 39 W/m2
07:04 69.7 °F 68.8 °F 29.95 in Calm     97% 0.00 in 40 W/m2
07:09 69.8 °F 68.9 °F 29.95 in Calm     97% 0.00 in 40 W/m2
07:14 69.9 °F 69 °F 29.95 in Calm     97% 0.00 in 54 W/m2
07:19 69.9 °F 69 °F 29.95 in Calm     97% 0.00 in 84 W/m2
07:24 70 °F 69.1 °F 29.95 in Calm     97% 0.00 in 88 W/m2
07:29 70 °F 69.2 °F 29.95 in Calm     97% 0.00 in 72 W/m2
07:34 70.2 °F 69.3 °F 29.95 in Calm   1 mph 97% 0.00 in 63 W/m2
07:39 70.2 °F 69.3 °F 29.95 in Calm   1 mph 97% 0.00 in 60 W/m2
07:44 70.2 °F 69.3 °F 29.96 in Calm   1 mph 97% 0.00 in 58 W/m2
07:49 70.3 °F 69.4 °F 29.96 in Calm   1 mph 97% 0.00 in 81 W/m2
07:54 70.4 °F 69.5 °F 29.96 in Calm   1 mph 97% 0.00 in 90 W/m2
07:59 70.4 °F 69.5 °F 29.96 in Calm   1 mph 97% 0.00 in 83 W/m2
08:04 70.6 °F 69.7 °F 29.96 in Calm     97% 0.00 in 60 W/m2
08:09 70.6 °F 69.7 °F 29.96 in Calm     97% 0.00 in 77 W/m2
08:14 70.7 °F 69.8 °F 29.96 in Calm     97% 0.00 in 72 W/m2
08:19 70.6 °F 69.7 °F 29.96 in Calm     97% 0.00 in 77 W/m2
08:24 70.6 °F 69.7 °F 29.96 in Calm     97% 0.00 in 76 W/m2
08:25 70.5 °F 69.6 °F 29.96 in Calm     97% 0.00 in 76 W/m2
08:30 70.5 °F 69.6 °F 29.96 in Calm     97% 0.00 in 68 W/m2
09:14 70.9 °F 70.1 °F 29.96 in Calm     97% 0.00 in 146 W/m2
09:19 71 °F 70.1 °F 29.95 in Calm     97% 0.00 in 211 W/m2
09:24 71.1 °F 70.2 °F 29.96 in Calm     97% 0.00 in 287 W/m2
09:29 71.5 °F 70.6 °F 29.96 in Calm     97% 0.00 in 292 W/m2
09:34 71.7 °F 70.8 °F 29.96 in Calm     97% 0.00 in 114 W/m2
09:39 71.8 °F 70.9 °F 29.96 in Calm     97% 0.00 in 153 W/m2
09:44 71.7 °F 70.8 °F 29.95 in Calm     97% 0.00 in 142 W/m2
09:49 71.8 °F 70.9 °F 29.95 in Calm     97% 0.00 in 199 W/m2
09:54 71.9 °F 71 °F 29.95 in Calm     97% 0.00 in 367 W/m2
09:59 72 °F 71.1 °F 29.95 in Calm     97% 0.00 in 301 W/m2
10:04 72.1 °F 71.2 °F 29.95 in Calm   1 mph 97% 0.00 in 383 W/m2
10:09 72 °F 71.1 °F 29.95 in Calm   1 mph 97% 0.00 in 313 W/m2
10:14 72 °F 71.1 °F 29.95 in Calm   1 mph 97% 0.00 in 209 W/m2
10:19 72.1 °F 71.2 °F 29.95 in Calm   1 mph 97% 0.00 in 190 W/m2
10:24 72.1 °F 71.2 °F 29.95 in Calm   1 mph 97% 0.00 in 178 W/m2
10:29 72.2 °F 71.3 °F 29.95 in Calm   1 mph 97% 0.00 in 139 W/m2
10:34 72.3 °F 71.5 °F 29.95 in Calm   1 mph 97% 0.00 in 211 W/m2
10:39 72.6 °F 71.7 °F 29.95 in North 0.1 mph 3 mph 97% 0.00 in 199 W/m2
10:44 72.6 °F 71.7 °F 29.95 in Calm   3 mph 97% 0.00 in 195 W/m2
10:49 72.8 °F 71.9 °F 29.95 in Calm   3 mph 97% 0.00 in 330 W/m2
10:54 73.2 °F 72.3 °F 29.95 in North 0.1 mph 3 mph 97% 0.00 in 425 W/m2
10:59 73.2 °F 72.3 °F 29.95 in NNE 0.1 mph 4 mph 97% 0.00 in 357 W/m2
11:04 73 °F 71.9 °F 29.95 in NE 0.4 mph 5 mph 96.5% 0.00 in 388 W/m2
11:09 73 °F 71.8 °F 29.95 in Calm   3 mph 96% 0.00 in 445 W/m2
11:14 73.5 °F 72.3 °F 29.95 in Calm   3 mph 96% 0.00 in 538 W/m2
11:19 73.8 °F 72.6 °F 29.95 in NE 0.6 mph 3 mph 96% 0.00 in 348 W/m2
11:24 74.3 °F 73.1 °F 29.95 in NW 0.6 mph 6 mph 96% 0.00 in 362 W/m2
11:29 74.6 °F 73.3 °F 29.94 in NNW 0.2 mph 6 mph 95.7% 0.00 in 473 W/m2
11:34 74.9 °F 73.3 °F 29.94 in NNW 0.6 mph 6 mph 95% 0.00 in 1011 W/m2
11:39 75.3 °F 73.6 °F 29.94 in North 1.1 mph 6 mph 94.5% 0.00 in 1011 W/m2
11:44 75.5 °F 73.5 °F 29.93 in Calm   6 mph 93.6% 0.00 in 547 W/m2
11:49 75.7 °F 73.5 °F 29.93 in NE 0.2 mph 6 mph 93% 0.00 in 452 W/m2
11:54 76 °F 73.5 °F 29.93 in NE 0.1 mph 6 mph 92% 0.00 in 469 W/m2
11:59 76.3 °F 73.7 °F 29.93 in NNW 1.1 mph 6 mph 91.8% 0.00 in 469 W/m2
12:00 76.5 °F 74 °F 29.93 in Calm   6 mph 92% 0.00 in 425 W/m2
12:09 77 °F 74.1 °F 29.93 in NNW 0.2 mph 3 mph 90.7% 0.00 in 417 W/m2
12:14 77.2 °F 73.9 °F 29.93 in NNW 0.2 mph 3 mph 89.6% 0.00 in 636 W/m2
12:19 77.4 °F 74 °F 29.93 in ENE 0.2 mph 3 mph 89% 0.00 in 636 W/m2
12:24 77.7 °F 74 °F 29.93 in North 0.5 mph 4 mph 88.3% 0.00 in 359 W/m2
12:29 77.9 °F 74 °F 29.93 in NNW 0.7 mph 6 mph 87.8% 0.00 in 338 W/m2
12:34 78 °F 73.8 °F 29.93 in NNW 0.5 mph 6 mph 87% 0.00 in 366 W/m2
12:39 78.2 °F 74.1 °F 29.92 in Calm   5 mph 87.2% 0.00 in 323 W/m2
12:44 78.3 °F 74 °F 29.92 in NNE 0.1 mph 5 mph 86.5% 0.00 in 295 W/m2
12:49 78.5 °F 74.1 °F 29.92 in NNE 0.3 mph 5 mph 86.5% 0.00 in 313 W/m2
12:54 78.5 °F 73.9 °F 29.92 in NNE 0.2 mph 5 mph 86% 0.00 in 404 W/m2
12:59 78.5 °F 74.2 °F 29.92 in NNE 0.7 mph 5 mph 86.4% 0.00 in 963 W/m2
13:00 78.7 °F 74.4 °F 29.92 in Calm   5 mph 86.7% 0.00 in 963 W/m2
13:09 79 °F 74.3 °F 29.92 in Calm     85.5% 0.00 in 367 W/m2
13:14 79.2 °F 74.6 °F 29.92 in NNE 0.9 mph 4 mph 85.7% 0.00 in 367 W/m2
13:19 79.5 °F 74.8 °F 29.91 in NNE 0.7 mph 4 mph 85.5% 0.00 in 318 W/m2
13:24 79.8 °F 75 °F 29.91 in NNE 0.6 mph 4 mph 85.2% 0.00 in 341 W/m2
13:29 80.1 °F 74.9 °F 29.91 in NE 0.5 mph 4 mph 84.3% 0.00 in 227 W/m2
13:34 80.1 °F 74.4 °F 29.91 in North 1.7 mph 6 mph 82.8% 0.00 in 232 W/m2
13:38 80.2 °F 74.9 °F 29.91 in NW 0.1 mph 6 mph 84% 0.00 in 939 W/m2
13:44 80.4 °F 74.7 °F 29.90 in East 0.5 mph 6 mph 82.6% 0.00 in 912 W/m2
13:49 80.7 °F 75.3 °F 29.91 in ENE 0.5 mph 6 mph 83.5% 0.00 in 912 W/m2
13:54 81.2 °F 75.6 °F 29.90 in North 0.5 mph 6 mph 83.2% 0.00 in 926 W/m2
13:59 81.5 °F 75.5 °F 29.91 in NNW 1.1 mph 6 mph 82.2% 0.00 in 926 W/m2
14:04 81.7 °F 75.6 °F 29.90 in NNW 0.9 mph 6 mph 81.6% 0.00 in 513 W/m2
14:09 81.9 °F 75.5 °F 29.90 in Calm   3 mph 81.1% 0.00 in 287 W/m2
14:14 81.9 °F 75.4 °F 29.90 in Calm   3 mph 80.6% 0.00 in 134 W/m2
14:19 81.8 °F 75.6 °F 29.90 in Calm   3 mph 81.4% 0.00 in 144 W/m2
14:24 81.8 °F 75.9 °F 29.90 in Calm   3 mph 82.5% 0.00 in 148 W/m2
14:29 81.7 °F 76 °F 29.90 in North 0.3 mph 3 mph 83.1% 0.00 in 213 W/m2
14:34 81.5 °F 75.6 °F 29.90 in Calm   3 mph 82.1% 0.00 in 257 W/m2
14:39 81.6 °F 75.7 °F 29.90 in Calm   1 mph 82.4% 0.00 in 190 W/m2
14:44 81.4 °F 74.9 °F 29.90 in Calm   1 mph 80.7% 0.00 in 167 W/m2
14:49 81.4 °F 75 °F 29.90 in Calm   1 mph 81% 0.00 in 202 W/m2
14:54 81.5 °F 75.5 °F 29.89 in Calm   1 mph 82% 0.00 in 708 W/m2
14:59 81.7 °F 75.8 °F 29.89 in North 0.1 mph 1 mph 82.4% 0.00 in 851 W/m2
15:04 82 °F 76.1 °F 29.89 in Calm   1 mph 82.5% 0.00 in 870 W/m2
15:09 82.3 °F 75.7 °F 29.89 in Calm     80.3% 0.00 in 278 W/m2
15:14 82.5 °F 75.5 °F 29.89 in North 0.2 mph 4 mph 79.6% 0.00 in 188 W/m2
15:19 82.6 °F 75.7 °F 29.89 in Calm   4 mph 79.6% 0.00 in 230 W/m2
15:24 82.7 °F 75.9 °F 29.89 in North 0.1 mph 4 mph 79.8% 0.00 in 847 W/m2
15:29 83 °F 76.3 °F 29.89 in North 0.3 mph 4 mph 80.5% 0.00 in 847 W/m2
15:34 83.3 °F 76.5 °F 29.89 in Calm   4 mph 80% 0.00 in 791 W/m2
15:39 83.5 °F 76.3 °F 29.89 in North 0.3 mph 2 mph 79% 0.00 in 193 W/m2
15:44 83.7 °F 76.3 °F 29.89 in North 0.7 mph 3 mph 78.5% 0.00 in 211 W/m2
15:49 83.7 °F 76 °F 29.88 in Calm   3 mph 77.8% 0.00 in 281 W/m2
15:54 83.9 °F 76.4 °F 29.88 in Calm   3 mph 78.4% 0.00 in 128 W/m2
15:59 83.9 °F 76.2 °F 29.88 in Calm   3 mph 77.6% 0.00 in 158 W/m2
16:00 83.9 °F 75.9 °F 29.88 in Calm   3 mph 77% 0.00 in 158 W/m2
16:09 83.8 °F 75.2 °F 29.88 in Calm     75.4% 0.00 in 121 W/m2
16:14 83.7 °F 75.1 °F 29.88 in Calm     75.3% 0.00 in 109 W/m2
16:19 83.7 °F 75.5 °F 29.88 in Calm     76.5% 0.00 in 83 W/m2
16:24 83.7 °F 76.2 °F 29.88 in Calm     78.2% 0.00 in 118 W/m2
16:29 83.5 °F 75.7 °F 29.88 in Calm     77.2% 0.00 in 104 W/m2
16:34 83.4 °F 75.6 °F 29.87 in Calm     77.4% 0.00 in 100 W/m2
16:39 83.3 °F 75.5 °F 29.87 in Calm     77.4% 0.00 in 186 W/m2
16:44 83.2 °F 75.8 °F 29.87 in Calm     78.4% 0.00 in 204 W/m2
16:49 83.4 °F 75.8 °F 29.87 in North 0.3 mph 4 mph 78.1% 0.00 in 171 W/m2
16:54 83.5 °F 75.5 °F 29.87 in NNE 0.2 mph 4 mph 77% 0.00 in 113 W/m2
16:59 83.4 °F 75.3 °F 29.87 in ESE 0.1 mph 4 mph 76.8% 0.00 in 105 W/m2
17:04 83.2 °F 75.2 °F 29.88 in South 0.9 mph 5 mph 76.8% 0.00 in 63 W/m2
17:09 82.9 °F 75.2 °F 29.88 in Calm   5 mph 77.7% 0.00 in 141 W/m2
17:14 82.6 °F 75.1 °F 29.88 in Calm   5 mph 78.1% 0.00 in 153 W/m2
17:19 82.4 °F 75.3 °F 29.88 in Calm   5 mph 79% 0.00 in 132 W/m2
17:24 82.4 °F 75.4 °F 29.87 in South 0.2 mph 5 mph 79.4% 0.00 in 98 W/m2
17:29 82.5 °F 75 °F 29.87 in South 0.3 mph 5 mph 78.2% 0.00 in 91 W/m2
17:34 82.4 °F 74.8 °F 29.87 in South 1.1 mph 5 mph 77.8% 0.00 in 70 W/m2
17:39 82.3 °F 74.7 °F 29.87 in Calm   4 mph 78% 0.00 in 70 W/m2
17:44 82.2 °F 74.7 °F 29.87 in SW 0.5 mph 7 mph 78.2% 0.00 in 79 W/m2
17:49 82.3 °F 74.9 °F 29.87 in SW 0.5 mph 7 mph 78.5% 0.00 in 79 W/m2
17:54 82.2 °F 74.3 °F 29.86 in SW 0.5 mph 7 mph 77.2% 0.00 in 74 W/m2
17:59 82.1 °F 74.2 °F 29.86 in SSW 0.8 mph 7 mph 77% 0.00 in 91 W/m2
18:04 82.1 °F 74.2 °F 29.86 in SSW 0.3 mph 7 mph 77% 0.00 in 79 W/m2
18:09 82.1 °F 74.1 °F 29.86 in SSW 1.5 mph 6 mph 76.7% 0.00 in 76 W/m2
18:14 82.2 °F 74.2 °F 29.86 in South 1 mph 6 mph 76.8% 0.00 in 69 W/m2
18:19 82.3 °F 74 °F 29.86 in South 1.2 mph 6 mph 76.2% 0.00 in 54 W/m2
18:24 82.2 °F 73.9 °F 29.86 in South 0.9 mph 6 mph 76% 0.00 in 54 W/m2
18:29 82.2 °F 73.9 °F 29.86 in South 0.4 mph 6 mph 76% 0.00 in 47 W/m2
18:34 82.1 °F 73.8 °F 29.86 in South 0.8 mph 6 mph 76% 0.00 in 42 W/m2
18:39 81.9 °F 73.6 °F 29.86 in Calm   6 mph 76% 0.00 in 40 W/m2
18:44 81.8 °F 73.5 °F 29.86 in South 0.2 mph 6 mph 76% 0.00 in 44 W/m2
18:49 81.7 °F 73.4 °F 29.86 in Calm   6 mph 76% 0.00 in 51 W/m2
18:54 81.7 °F 73.5 °F 29.86 in South 0.2 mph 6 mph 76.3% 0.00 in 58 W/m2
18:59 81.6 °F 73.5 °F 29.87 in South 0.2 mph 6 mph 76.3% 0.00 in 53 W/m2
19:04 81.6 °F 73.7 °F 29.87 in South 0.1 mph 6 mph 76.9% 0.00 in 51 W/m2
19:09 81.5 °F 73.3 °F 29.87 in Calm   2 mph 76% 0.00 in 26 W/m2
19:14 81.4 °F 73.2 °F 29.87 in Calm   2 mph 76.2% 0.00 in 25 W/m2
19:19 81.2 °F 72.9 °F 29.87 in Calm   2 mph 76% 0.00 in 25 W/m2
19:24 81 °F 73 °F 29.87 in South 0.3 mph 3 mph 76.5% 0.00 in 28 W/m2
19:29 80.9 °F 72.6 °F 29.87 in Calm   3 mph 76% 0.00 in 28 W/m2
19:34 80.7 °F 72.5 °F 29.87 in Calm   3 mph 76% 0.00 in 21 W/m2
19:39 80.6 °F 72.4 °F 29.87 in Calm     76% 0.00 in 14 W/m2
19:44 80.5 °F 72.2 °F 29.87 in Calm     75.8% 0.00 in 12 W/m2
19:49 80.4 °F 72.1 °F 29.87 in Calm     76% 0.00 in 9 W/m2
19:54 80.3 °F 72 °F 29.87 in Calm     76% 0.00 in 7 W/m2
19:59 80.2 °F 71.9 °F 29.88 in Calm     76% 0.00 in 7 W/m2
20:00 80.2 °F 71.9 °F 29.87 in Calm     76% 0.00 in 5 W/m2
20:09 80 °F 71.8 °F 29.88 in Calm     76% 0.00 in 0 W/m2
20:14 79.9 °F 71.9 °F 29.88 in Calm     76.6% 0.00 in 0 W/m2
20:19 79.9 °F 72 °F 29.88 in Calm     77% 0.00 in 0 W/m2
20:24 79.8 °F 71.9 °F 29.88 in Calm     77% 0.00 in 0 W/m2
20:29 79.8 °F 72.3 °F 29.88 in Calm     77.9% 0.00 in 0 W/m2
20:34 79.7 °F 72.3 °F 29.88 in Calm     78% 0.00 in 0 W/m2
20:39 79.6 °F 72.2 °F 29.88 in Calm     78% 0.00 in 0 W/m2
20:44 79.6 °F 72.4 °F 29.88 in Calm     78.8% 0.00 in 0 W/m2
20:49 79.4 °F 72.4 °F 29.88 in Calm     79% 0.00 in 0 W/m2
20:54 79.3 °F 72.3 °F 29.88 in Calm     79% 0.00 in 0 W/m2
20:59 79.2 °F 72.2 °F 29.88 in Calm     79% 0.00 in 0 W/m2
21:04 79.1 °F 72.2 °F 29.89 in Calm     79.4% 0.00 in 0 W/m2
21:09 78.9 °F 72.3 °F 29.89 in South 0.1 mph 2 mph 80% 0.00 in 0 W/m2
21:14 78.7 °F 72.1 °F 29.89 in SSW 0.4 mph 5 mph 80% 0.00 in 0 W/m2
21:19 78.5 °F 72.1 °F 29.89 in SW 0.3 mph 5 mph 80.8% 0.00 in 0 W/m2
21:24 78.3 °F 72 °F 29.89 in SW 0.5 mph 5 mph 81% 0.00 in 0 W/m2
21:29 78.1 °F 71.8 °F 29.89 in Calm   5 mph 81% 0.00 in 0 W/m2
21:34 77.9 °F 71.9 °F 29.90 in Calm   5 mph 81.7% 0.00 in 0 W/m2
21:39 77.7 °F 71.8 °F 29.90 in Calm     82% 0.00 in 0 W/m2
21:44 77.6 °F 71.7 °F 29.90 in Calm     82.2% 0.00 in 0 W/m2
21:49 77.4 °F 71.9 °F 29.90 in Calm     83% 0.00 in 0 W/m2
21:54 77.3 °F 71.7 °F 29.90 in Calm   1 mph 83% 0.00 in 0 W/m2
21:59 77.1 °F 71.5 °F 29.90 in Calm   1 mph 83% 0.00 in 0 W/m2
22:04 76.9 °F 71.5 °F 29.90 in Calm   1 mph 83.2% 0.00 in 0 W/m2
22:09 76.8 °F 71.6 °F 29.90 in Calm     84% 0.00 in 0 W/m2
22:14 76.6 °F 71.4 °F 29.90 in Calm     84% 0.00 in 0 W/m2
22:19 76.5 °F 71.6 °F 29.90 in WSW 0.1 mph 3 mph 84.7% 0.00 in 0 W/m2
22:24 76.3 °F 71.8 °F 29.90 in NNW 0.3 mph 4 mph 85.9% 0.00 in 0 W/m2
22:29 75.9 °F 71.4 °F 29.90 in ENE 1.3 mph 7 mph 86% 0.00 in 0 W/m2
22:34 75.5 °F 71 °F 29.90 in NNW 0.6 mph 7 mph 86% 0.00 in 0 W/m2
22:39 75.1 °F 70.6 °F 29.90 in North 0.3 mph 7 mph 86% 0.00 in 0 W/m2
22:44 74.7 °F 70.2 °F 29.90 in North 0.1 mph 7 mph 86% 0.00 in 0 W/m2
22:49 74.3 °F 69.8 °F 29.90 in NNW 0.3 mph 7 mph 86% 0.00 in 0 W/m2
22:54 74 °F 69.5 °F 29.90 in NNW 0.2 mph 7 mph 86% 0.00 in 0 W/m2
22:59 73.7 °F 69.3 °F 29.90 in NNW 0.3 mph 7 mph 86% 0.00 in 0 W/m2
23:04 73.5 °F 69 °F 29.90 in North 1 mph 7 mph 86% 0.00 in 0 W/m2
23:09 73.2 °F 69.1 °F 29.91 in North 0.1 mph 6 mph 86.8% 0.00 in 0 W/m2
23:14 73.1 °F 69 °F 29.91 in NNE 0.2 mph 6 mph 87% 0.00 in 0 W/m2
23:19 72.8 °F 68.8 °F 29.91 in NNE 0.2 mph 6 mph 87% 0.00 in 0 W/m2
23:24 72.6 °F 68.8 °F 29.91 in NNE 0.2 mph 6 mph 87.7% 0.00 in 0 W/m2
23:29 72.4 °F 68.7 °F 29.91 in Calm   6 mph 88% 0.00 in 0 W/m2
23:34 72.3 °F 68.6 °F 29.91 in Calm   6 mph 88% 0.00 in 0 W/m2
23:39 72.2 °F 68.4 °F 29.91 in NNE 0.2 mph 5 mph 88% 0.00 in 0 W/m2
23:44 72.1 °F 68.6 °F 29.91 in NNE 0.3 mph 5 mph 88.9% 0.00 in 0 W/m2
23:49 71.9 °F 68.5 °F 29.91 in NNE 0.6 mph 5 mph 89% 0.00 in 0 W/m2
23:54 71.8 °F 68.4 °F 29.91 in NNW 0.9 mph 5 mph 89% 0.00 in 0 W/m2
23:59 71.7 °F 68.2 °F 29.91 in NW 0.6 mph 5 mph 89% 0.00 in 0 W/m2
Hartford County Weather
Compliments of Weather Underground - 4 mb